Time;durP1;ratioP1;P1;durP2;ratioP2;P2;SDS_P1;SDS_P2;PMS_P1;PMS_P2;Temp;Humidity;BMP_temperature;BMP_pressure;BME280_temperature;BME280_humidity;BME280_pressure;Samples;Min_cycle;Max_cycle;Signal;HPM_P1;HPM_P2
2024/03/18 00:00:01;;;;;;;13.23;9.85;;;;;;;9.13;100.00;100590.69;5094084;28;20035;-71
2024/03/18 00:02:28;;;;;;;17.60;10.38;;;;;;;9.12;100.00;100577.56;5085237;27;20505;-71
2024/03/18 00:04:58;;;;;;;;;;;;;;;9.14;100.00;100568.66;5107730;28;20035;-70
2024/03/18 00:07:25;;;;;;;11.43;9.10;;;;;;;9.17;100.00;100567.66;5084816;28;20404;-72
2024/03/18 00:09:52;;;;;;;13.95;9.35;;;;;;;9.18;100.00;100564.09;5094265;28;20125;-70
2024/03/18 00:12:20;;;;;;;12.20;9.10;;;;;;;9.18;100.00;100564.09;5072928;28;20090;-72
2024/03/18 00:14:48;;;;;;;13.73;9.35;;;;;;;9.19;100.00;100565.84;5070760;28;20580;-70
2024/03/18 00:17:17;;;;;;;14.32;8.85;;;;;;;9.18;100.00;100569.41;5093561;28;20067;-70
2024/03/18 00:19:44;;;;;;;13.43;9.30;;;;;;;9.18;100.00;100563.25;5092259;28;20526;-71
2024/03/18 00:22:12;;;;;;;12.40;9.45;;;;;;;9.05;100.00;100545.22;5088000;28;20043;-71
2024/03/18 00:24:38;;;;;;;13.88;8.98;;;;;;;9.12;100.00;100556.44;5090058;28;20129;-70
2024/03/18 00:27:04;;;;;;;12.27;8.48;;;;;;;9.14;100.00;100546.66;5091612;28;20108;-72
2024/03/18 00:29:31;;;;;;;12.10;8.70;;;;;;;9.14;100.00;100549.28;5091533;28;20071;-71
2024/03/18 00:31:58;;;;;;;12.95;8.93;;;;;;;9.12;100.00;100548.50;5087707;28;20063;-71
2024/03/18 00:34:26;;;;;;;14.15;9.10;;;;;;;9.09;100.00;100545.97;5103849;28;20699;-72
2024/03/18 00:36:54;;;;;;;12.25;8.85;;;;;;;9.08;100.00;100536.34;5107314;27;20031;-71
2024/03/18 00:39:21;;;;;;;10.77;8.25;;;;;;;9.09;100.00;100538.91;5095387;28;20087;-72
2024/03/18 00:41:48;;;;;;;12.90;8.80;;;;;;;9.12;100.00;100537.94;5077107;28;20507;-71
2024/03/18 00:44:16;;;;;;;11.68;7.95;;;;;;;9.14;100.00;100538.72;5087111;27;20792;-70
2024/03/18 00:46:44;;;;;;;11.30;8.70;;;;;;;9.15;100.00;100537.81;5116147;27;20114;-70
2024/03/18 00:49:12;;;;;;;12.20;9.02;;;;;;;9.08;100.00;100524.00;5095957;27;20806;-69
2024/03/18 00:51:42;;;;;;;11.73;8.73;;;;;;;9.15;100.00;100535.16;5073206;27;20069;-70
2024/03/18 00:54:10;;;;;;;14.43;9.20;;;;;;;9.08;100.00;100528.41;5089160;27;20028;-71
2024/03/18 00:56:37;;;;;;;11.82;8.55;;;;;;;9.01;100.00;100513.69;5081937;27;20122;-71
2024/03/18 00:59:05;;;;;;;10.60;8.38;;;;;;;9.10;100.00;100523.94;5097639;27;20531;-70
2024/03/18 01:01:32;;;;;;;14.98;9.50;;;;;;;9.11;100.00;100526.53;5095505;27;20130;-71
2024/03/18 01:03:59;;;;;;;13.02;9.85;;;;;;;9.08;100.00;100524.00;5093253;27;20119;-72
2024/03/18 01:06:27;;;;;;;9.68;7.93;;;;;;;8.97;100.00;100509.47;5095868;27;20594;-70
2024/03/18 01:08:56;;;;;;;11.32;8.80;;;;;;;9.09;100.00;100517.78;5095392;27;20126;-70
2024/03/18 01:11:22;;;;;;;15.00;8.60;;;;;;;9.10;100.00;100519.50;5095951;27;20075;-71
2024/03/18 01:13:49;;;;;;;12.25;8.40;;;;;;;9.11;100.00;100517.72;5104755;27;20536;-70
2024/03/18 01:16:16;;;;;;;11.95;8.60;;;;;;;9.02;100.00;100500.44;5096925;27;20134;-72
2024/03/18 01:18:43;;;;;;;11.43;9.13;;;;;;;9.12;100.00;100516.81;5111409;27;20122;-71
2024/03/18 01:21:11;;;;;;;12.68;8.90;;;;;;;9.09;100.00;100511.66;5081343;27;20081;-70
2024/03/18 01:23:38;;;;;;;11.75;8.88;;;;;;;9.07;100.00;100509.06;5108360;27;20054;-71
2024/03/18 01:26:07;;;;;;;11.98;8.50;;;;;;;9.08;100.00;100507.28;5097107;27;20059;-70
2024/03/18 01:28:34;;;;;;;11.02;8.45;;;;;;;9.05;100.00;100513.53;5091281;28;20059;-72
2024/03/18 01:31:03;;;;;;;13.18;8.52;;;;;;;9.03;100.00;100502.16;5113036;27;20047;-71
2024/03/18 01:33:30;;;;;;;10.82;8.30;;;;;;;9.07;100.00;100500.28;5132975;27;20023;-75
2024/03/18 01:35:57;;;;;;;12.00;8.30;;;;;;;9.06;100.00;100499.41;5140839;27;20043;-77
2024/03/18 01:38:24;;;;;;;13.52;8.98;;;;;;;9.03;100.00;100494.25;5139534;27;20071;-71
2024/03/18 01:40:52;;;;;;;11.93;8.63;;;;;;;9.00;100.00;100502.28;5127697;27;20046;-72
2024/03/18 01:43:21;;;;;;;10.93;8.43;;;;;;;8.97;100.00;100499.75;5113707;27;20059;-73
2024/03/18 01:45:48;;;;;;;11.25;8.48;;;;;;;8.95;100.00;100493.69;5089639;28;20130;-70
2024/03/18 01:48:15;;;;;;;13.50;8.95;;;;;;;8.85;100.00;100475.59;5085383;27;20067;-68
2024/03/18 01:50:42;;;;;;;11.57;8.20;;;;;;;8.95;100.00;100496.34;5077121;27;20074;-70
2024/03/18 01:53:11;;;;;;;14.23;8.38;;;;;;;8.93;100.00;100492.88;5104845;27;20508;-73
2024/03/18 01:55:38;;;;;;;10.13;8.07;;;;;;;8.93;100.00;100482.31;5084161;28;20067;-71
2024/03/18 01:58:05;;;;;;;11.55;8.32;;;;;;;8.92;100.00;100477.09;5109218;27;20126;-70
2024/03/18 02:00:35;;;;;;;11.25;8.35;;;;;;;8.89;100.00;100466.66;5115483;27;20576;-71
2024/03/18 02:03:04;;;;;;;11.00;7.90;;;;;;;8.95;100.00;100474.34;5087751;27;20093;-74
2024/03/18 02:05:32;;;;;;;12.43;8.07;;;;;;;8.95;100.00;100482.28;5097686;27;20035;-71
2024/03/18 02:08:01;;;;;;;9.77;7.85;;;;;;;8.94;100.00;100476.13;5094277;27;20185;-73
2024/03/18 02:10:28;;;;;;;12.40;8.18;;;;;;;8.90;100.00;100468.38;5118879;27;20071;-72
2024/03/18 02:12:58;;;;;;;11.70;8.05;;;;;;;8.86;100.00;100461.47;5090140;27;20081;-71
2024/03/18 02:15:26;;;;;;;10.82;8.40;;;;;;;8.75;100.00;100438.13;5113430;27;20454;-70
2024/03/18 02:17:55;;;;;;;12.73;7.80;;;;;;;8.89;100.00;100458.72;5093547;27;20074;-70
2024/03/18 02:20:22;;;;;;;11.57;7.85;;;;;;;8.96;100.00;100462.84;5110301;27;20126;-73
2024/03/18 02:22:51;;;;;;;12.55;7.85;;;;;;;8.98;100.00;100463.63;5105735;27;20039;-73
2024/03/18 02:25:20;;;;;;;10.73;7.80;;;;;;;8.83;100.00;100422.84;5107978;27;20475;-70
2024/03/18 02:27:47;;;;;;;10.50;8.45;;;;;;;9.02;100.00;100457.31;5093400;27;20471;-71
2024/03/18 02:30:15;;;;;;;11.85;8.60;;;;;;;9.02;100.00;100455.53;5091248;27;20051;-71
2024/03/18 02:32:43;;;;;;;11.05;7.63;;;;;;;9.03;100.00;100451.97;5105143;27;20130;-73
2024/03/18 02:35:11;;;;;;;10.77;7.55;;;;;;;8.97;100.00;100446.09;5086676;27;20063;-71
2024/03/18 02:37:40;;;;;;;12.48;8.30;;;;;;;8.92;100.00;100446.25;5088822;27;20479;-70
2024/03/18 02:40:12;;;;;;;11.05;8.50;;;;;;;8.87;100.00;100436.78;5113954;27;20107;-71
2024/03/18 02:42:42;;;;;;;10.88;8.25;;;;;;;8.79;100.00;100430.06;5086885;28;20509;-71
2024/03/18 02:45:10;;;;;;;11.68;7.80;;;;;;;8.83;100.00;100430.75;5103895;27;20118;-71
2024/03/18 02:47:37;;;;;;;12.68;8.27;;;;;;;8.83;100.00;100427.25;5116455;27;20067;-72
2024/03/18 02:50:04;;;;;;;11.57;8.18;;;;;;;8.79;100.00;100421.28;5093385;27;20046;-70
2024/03/18 02:52:31;;;;;;;11.90;8.10;;;;;;;8.79;100.00;100419.50;5097027;27;20126;-71
2024/03/18 02:54:58;;;;;;;12.15;8.30;;;;;;;8.76;100.00;100414.31;5055546;27;20043;-70
2024/03/18 02:57:27;;;;;;;12.02;8.13;;;;;;;8.69;100.00;100402.25;5094577;27;20576;-70
2024/03/18 02:59:54;;;;;;;9.73;8.13;;;;;;;8.66;100.00;100391.81;5094325;27;20075;-73
2024/03/18 03:02:22;;;;;;;13.13;7.38;;;;;;;8.75;100.00;100402.03;5093901;27;20390;-69
2024/03/18 03:04:49;;;;;;;11.15;8.10;;;;;;;8.75;100.00;100402.03;5103588;27;20150;-71
2024/03/18 03:07:16;;;;;;;13.70;8.65;;;;;;;8.76;100.00;100401.13;5075297;27;20074;-70
2024/03/18 03:09:43;;;;;;;13.63;7.90;;;;;;;8.73;100.00;100398.59;5090759;27;20043;-71
2024/03/18 03:12:10;;;;;;;12.75;8.25;;;;;;;8.67;100.00;100380.34;5074635;27;20130;-71
2024/03/18 03:14:38;;;;;;;11.13;8.02;;;;;;;8.74;100.00;100392.41;5087356;27;20071;-72
2024/03/18 03:17:07;;;;;;;10.80;8.02;;;;;;;8.86;100.00;100404.25;5114066;27;20054;-71
2024/03/18 03:19:33;;;;;;;11.75;7.57;;;;;;;8.89;100.00;100400.63;5109773;27;20125;-70
2024/03/18 03:22:00;;;;;;;10.80;7.65;;;;;;;8.90;100.00;100400.56;5070288;27;20074;-73
2024/03/18 03:24:27;;;;;;;11.70;7.93;;;;;;;8.87;100.00;100397.19;5089008;27;20066;-71
2024/03/18 03:26:54;;;;;;;13.23;8.68;;;;;;;8.90;100.00;100410.28;5109733;27;20059;-70
2024/03/18 03:29:21;;;;;;;11.40;8.55;;;;;;;8.92;100.00;100408.44;5082262;27;20051;-71
2024/03/18 03:31:49;;;;;;;11.57;7.70;;;;;;;8.93;100.00;100408.38;5095605;28;20146;-73
2024/03/18 03:34:16;;;;;;;13.10;8.25;;;;;;;8.91;100.00;100390.88;5072976;28;20056;-70
2024/03/18 03:36:44;;;;;;;10.85;7.78;;;;;;;8.95;100.00;100381.91;5087459;27;20099;-71
2024/03/18 03:39:12;;;;;;;12.23;8.25;;;;;;;9.02;100.00;100392.16;5094598;28;20059;-74
2024/03/18 03:41:38;;;;;;;11.27;8.02;;;;;;;8.99;100.00;100373.78;5092445;28;20099;-71
2024/03/18 03:44:05;;;;;;;11.88;8.75;;;;;;;8.98;100.00;100368.56;5109197;27;20070;-70
2024/03/18 03:46:32;;;;;;;13.60;8.40;;;;;;;8.98;100.00;100379.13;5107894;27;20043;-70
2024/03/18 03:49:00;;;;;;;12.10;8.40;;;;;;;8.96;100.00;100373.94;5094456;27;20152;-70
2024/03/18 03:51:28;;;;;;;11.88;8.15;;;;;;;8.97;100.00;100372.16;5106210;28;20051;-71
2024/03/18 03:53:57;;;;;;;10.32;7.38;;;;;;;8.96;100.00;100363.38;5102699;28;20063;-70
2024/03/18 03:56:24;;;;;;;11.77;8.27;;;;;;;8.95;100.00;100366.06;5093204;27;20042;-71
2024/03/18 03:58:52;;;;;;;10.15;7.57;;;;;;;8.88;100.00;100357.50;5113587;27;20121;-70
2024/03/18 04:01:21;;;;;;;10.75;8.10;;;;;;;8.96;100.00;100362.50;5063587;28;20134;-71
2024/03/18 04:03:47;;;;;;;10.23;7.68;;;;;;;8.90;100.00;100350.41;5074546;28;20150;-74
2024/03/18 04:06:16;;;;;;;9.43;7.65;;;;;;;8.93;100.00;100357.34;5096976;28;20067;-74
2024/03/18 04:08:42;;;;;;;11.35;7.53;;;;;;;8.97;100.00;100356.31;5094027;27;20132;-72
2024/03/18 04:11:10;;;;;;;10.57;8.48;;;;;;;9.09;100.00;100376.91;5108520;28;20063;-70
2024/03/18 04:13:37;;;;;;;14.38;8.55;;;;;;;9.11;100.00;100364.50;5092650;27;20079;-72
2024/03/18 04:16:04;;;;;;;13.35;8.10;;;;;;;9.07;100.00;100349.69;5092318;27;20560;-71
2024/03/18 04:18:31;;;;;;;12.10;8.23;;;;;;;9.14;100.00;100357.28;5111954;27;20126;-72
2024/03/18 04:20:59;;;;;;;13.98;8.38;;;;;;;9.17;100.00;100352.81;5108005;27;20131;-72
2024/03/18 04:23:29;;;;;;;9.93;7.88;;;;;;;9.19;100.00;100354.47;5112743;27;20073;-71
2024/03/18 04:25:57;;;;;;;11.45;7.93;;;;;;;9.07;100.00;100320.66;5109662;27;20074;-70
2024/03/18 04:28:24;;;;;;;10.13;7.55;;;;;;;9.20;100.00;100334.19;5111517;27;20067;-72
2024/03/18 04:30:50;;;;;;;10.45;7.95;;;;;;;9.26;100.00;100353.31;5110034;27;20070;-72
2024/03/18 04:33:17;;;;;;;10.38;7.70;;;;;;;9.27;100.00;100348.88;5112940;27;20063;-74
2024/03/18 04:35:45;;;;;;;10.35;8.13;;;;;;;9.26;100.00;100352.44;5106304;27;20130;-71
2024/03/18 04:38:12;;;;;;;9.38;7.50;;;;;;;9.21;100.00;100347.34;5096311;27;20138;-69
2024/03/18 04:40:42;;;;;;;11.15;8.32;;;;;;;9.27;100.00;100348.88;5100107;27;20107;-70
2024/03/18 04:43:08;;;;;;;12.52;8.32;;;;;;;9.18;100.00;100334.25;5112624;27;20067;-71
2024/03/18 04:45:35;;;;;;;9.23;7.85;;;;;;;9.28;100.00;100348.81;5095320;27;20126;-72
2024/03/18 04:48:04;;;;;;;13.23;8.45;;;;;;;9.23;100.00;100344.63;5080598;27;20066;-71
2024/03/18 04:50:31;;;;;;;10.55;8.15;;;;;;;9.24;100.00;100351.66;5094567;27;20066;-70
2024/03/18 04:52:58;;;;;;;11.88;8.07;;;;;;;9.15;100.00;100337.03;5095632;27;20117;-71
2024/03/18 04:55:25;;;;;;;11.32;8.15;;;;;;;9.25;100.00;100353.38;5099614;27;20448;-70
2024/03/18 04:57:55;;;;;;;12.15;8.40;;;;;;;9.24;100.00;100349.84;5097148;27;20067;-71
2024/03/18 05:00:25;;;;;;;9.73;7.50;;;;;;;9.25;100.00;100348.06;5091102;27;20136;-71
2024/03/18 05:02:52;;;;;;;12.20;8.50;;;;;;;8.97;100.00;100301.66;5092076;27;20066;-70
2024/03/18 05:05:18;;;;;;;11.02;7.93;;;;;;;9.30;100.00;100349.59;5102439;27;20071;-74
2024/03/18 05:07:46;;;;;;;11.00;7.85;;;;;;;9.33;100.00;100341.53;5114062;27;20039;-70
2024/03/18 05:10:16;;;;;;;10.20;8.10;;;;;;;9.34;100.00;100342.38;5094002;27;20122;-71
2024/03/18 05:12:43;;;;;;;13.05;8.18;;;;;;;9.27;100.00;100339.16;5109300;27;20043;-72
2024/03/18 05:15:11;;;;;;;12.77;8.75;;;;;;;9.29;100.00;100339.94;5075996;27;20056;-72
2024/03/18 05:17:38;;;;;;;10.50;7.93;;;;;;;9.28;100.00;100346.16;5111066;27;20101;-70
2024/03/18 05:20:11;;;;;;;11.52;8.40;;;;;;;9.23;100.00;100334.06;5095429;27;20199;-70
2024/03/18 05:22:39;;;;;;;11.00;8.43;;;;;;;9.12;100.00;100321.31;5097834;27;20828;-71
2024/03/18 05:25:10;;;;;;;12.82;8.70;;;;;;;9.23;100.00;100342.00;5099774;27;20040;-70
2024/03/18 05:27:38;;;;;;;12.70;8.20;;;;;;;9.23;100.00;100334.94;5109046;27;20063;-70
2024/03/18 05:30:06;;;;;;;12.38;8.60;;;;;;;9.25;100.00;100338.38;5093472;27;20130;-71
2024/03/18 05:32:35;;;;;;;15.93;9.48;;;;;;;9.26;100.00;100342.72;5109361;27;20074;-70
2024/03/18 05:35:02;;;;;;;12.40;8.70;;;;;;;9.25;100.00;100343.66;5097383;27;20500;-71
2024/03/18 05:37:29;;;;;;;13.43;8.75;;;;;;;9.25;100.00;100340.16;5095555;27;20062;-71
2024/03/18 05:39:56;;;;;;;11.23;8.25;;;;;;;9.24;100.00;100341.94;5096170;27;20473;-70
2024/03/18 05:42:23;;;;;;;12.20;8.10;;;;;;;9.25;100.00;100337.50;5116456;27;20035;-71
2024/03/18 05:44:50;;;;;;;12.50;8.45;;;;;;;9.28;100.00;100332.09;5107788;27;20566;-74
2024/03/18 05:47:17;;;;;;;13.57;8.48;;;;;;;9.08;100.00;100312.66;5096118;27;20050;-70
2024/03/18 05:49:45;;;;;;;12.40;8.43;;;;;;;9.27;100.00;100333.88;5112980;27;20040;-73
2024/03/18 05:52:12;;;;;;;11.98;8.68;;;;;;;9.25;100.00;100337.50;5112387;27;20130;-71
2024/03/18 05:54:39;;;;;;;10.07;7.75;;;;;;;9.24;100.00;100344.56;5110425;27;20078;-72
2024/03/18 05:57:06;;;;;;;10.32;8.07;;;;;;;9.25;100.00;100337.50;5075424;27;20077;-70
2024/03/18 05:59:32;;;;;;;10.93;8.45;;;;;;;9.24;100.00;100341.06;5091698;27;20101;-71
2024/03/18 06:01:59;;;;;;;15.00;9.43;;;;;;;9.22;100.00;100345.56;5094207;27;20136;-72
2024/03/18 06:04:26;;;;;;;11.98;8.23;;;;;;;9.20;100.00;100342.97;5109292;27;20067;-72
2024/03/18 06:06:54;;;;;;;11.68;8.30;;;;;;;9.20;100.00;100350.03;5063212;27;20043;-70
2024/03/18 06:09:21;;;;;;;12.95;8.85;;;;;;;9.19;100.00;100349.19;5100586;27;20441;-69
2024/03/18 06:11:49;;;;;;;9.88;8.00;;;;;;;9.21;100.00;100355.25;5096762;27;20472;-73
2024/03/18 06:14:16;;;;;;;11.93;8.57;;;;;;;9.15;100.00;100337.03;5112659;27;20074;-73
2024/03/18 06:16:43;;;;;;;12.32;8.75;;;;;;;9.19;100.00;100350.97;5104445;27;20039;-72
2024/03/18 06:19:13;;;;;;;12.65;8.90;;;;;;;9.23;100.00;100361.34;5110131;27;20150;-73
2024/03/18 06:21:42;;;;;;;11.75;8.52;;;;;;;9.22;100.00;100351.69;5090073;27;20040;-73
2024/03/18 06:24:19;;;;;;;12.77;9.85;;;;;;;9.30;100.00;100362.78;5111124;27;20129;-78
2024/03/18 06:26:46;;;;;;;15.95;9.57;;;;;;;9.32;100.00;100368.03;5090255;27;20049;-72
2024/03/18 06:29:14;;;;;;;11.05;8.55;;;;;;;9.26;100.00;100366.50;5095255;27;20074;-69
2024/03/18 06:31:41;;;;;;;13.55;9.20;;;;;;;9.26;100.00;100369.16;5107535;27;20081;-70
2024/03/18 06:34:09;;;;;;;13.63;9.30;;;;;;;9.17;100.00;100380.09;5109187;27;20556;-71
2024/03/18 06:36:36;;;;;;;13.20;9.07;;;;;;;8.99;100.00;100373.78;5089038;27;20126;-72
2024/03/18 06:39:03;;;;;;;14.55;10.07;;;;;;;8.82;100.00;100376.22;5098414;27;20527;-71
2024/03/18 06:41:33;;;;;;;16.05;10.27;;;;;;;8.61;100.00;100371.81;5093793;27;20524;-71
2024/03/18 06:43:59;;;;;;;17.15;10.43;;;;;;;8.48;100.00;100381.16;5112604;27;20130;-72
2024/03/18 06:46:26;;;;;;;16.98;11.07;;;;;;;8.29;100.00;100380.94;5107587;27;20106;-71
2024/03/18 06:48:53;;;;;;;17.00;11.70;;;;;;;8.19;100.00;100384.81;5092624;27;20478;-73
2024/03/18 06:51:19;;;;;;;16.83;12.60;;;;;;;7.91;100.00;100355.97;5094493;27;20074;-70
2024/03/18 06:53:46;;;;;;;19.63;12.23;;;;;;;7.93;100.00;100388.44;5095225;27;20062;-72
2024/03/18 06:56:13;;;;;;;19.00;13.10;;;;;;;7.86;100.00;100392.22;5087019;27;20121;-71
2024/03/18 06:58:41;;;;;;;19.48;13.60;;;;;;;7.80;100.00;100382.75;5110165;27;20066;-71
2024/03/18 07:01:09;;;;;;;19.23;13.05;;;;;;;7.84;100.00;100384.38;5092142;27;20130;-70
2024/03/18 07:03:37;;;;;;;20.80;14.27;;;;;;;7.84;100.00;100381.72;5091982;27;20126;-73
2024/03/18 07:06:05;;;;;;;22.20;13.93;;;;;;;7.83;100.00;100382.66;5101515;27;20471;-71
2024/03/18 07:08:32;;;;;;;21.15;14.27;;;;;;;7.88;100.00;100385.94;5093395;27;20046;-72
2024/03/18 07:11:00;;;;;;;22.38;14.02;;;;;;;7.93;100.00;100376.09;5089815;27;20118;-74
2024/03/18 07:13:27;;;;;;;20.25;13.80;;;;;;;7.85;100.00;100367.63;5080893;27;20077;-72
2024/03/18 07:15:55;;;;;;;20.05;12.80;;;;;;;7.94;100.00;100379.59;5081987;27;20063;-71
2024/03/18 07:18:23;;;;;;;19.88;13.15;;;;;;;7.94;100.00;100382.25;5110040;27;20059;-71
2024/03/18 07:20:50;;;;;;;22.45;14.32;;;;;;;7.97;100.00;100379.50;5092489;27;20074;-72
2024/03/18 07:23:18;;;;;;;21.73;13.77;;;;;;;7.95;100.00;100383.97;5089363;27;20458;-71
2024/03/18 07:25:45;;;;;;;19.63;13.68;;;;;;;7.84;100.00;100371.19;5067212;27;20071;-71
2024/03/18 07:28:13;;;;;;;18.65;13.00;;;;;;;7.92;100.00;100384.06;5106993;27;20535;-71
2024/03/18 07:30:40;;;;;;;21.95;13.68;;;;;;;7.92;100.00;100377.03;5093330;27;20104;-73
2024/03/18 07:33:09;;;;;;;22.67;14.07;;;;;;;7.91;100.00;100366.53;5082440;27;20100;-71
2024/03/18 07:35:35;;;;;;;20.20;13.05;;;;;;;7.99;100.00;100373.25;5094883;27;20126;-71
2024/03/18 07:38:03;;;;;;;24.08;14.48;;;;;;;8.03;100.00;100377.47;5074198;27;20058;-72
2024/03/18 07:40:29;;;;;;;24.60;16.17;;;;;;;8.08;100.00;100380.81;5092818;27;20130;-74
2024/03/18 07:42:58;;;;;;;25.02;15.38;;;;;;;8.21;100.00;100375.09;5073920;27;20043;-71
2024/03/18 07:45:26;;;;;;;22.30;14.50;;;;;;;8.29;100.00;100373.91;5090766;27;20465;-71
2024/03/18 07:47:53;;;;;;;24.02;14.57;;;;;;;8.37;100.00;100377.13;5096685;28;20118;-71
2024/03/18 07:50:21;;;;;;;21.20;13.93;;;;;;;8.33;100.00;100377.31;5107504;28;20059;-74
2024/03/18 07:52:48;;;;;;;20.73;13.68;;;;;;;8.25;100.00;100377.56;5095208;27;20051;-72
2024/03/18 07:55:15;;;;;;;21.77;14.30;;;;;;;8.25;100.00;100385.47;5099075;27;20067;-73
2024/03/18 07:57:42;;;;;;;20.90;13.65;;;;;;;7.99;100.00;100338.97;5111390;27;20665;-71
2024/03/18 08:00:11;;;;;;;22.55;13.75;;;;;;;8.26;100.00;100381.91;5090967;27;20524;-73
2024/03/18 08:02:38;;;;;;;24.52;15.25;;;;;;;8.28;100.00;100395.91;5111587;27;20497;-71
2024/03/18 08:05:06;;;;;;;20.65;14.05;;;;;;;8.31;100.00;100379.13;5088718;27;20142;-72
2024/03/18 08:07:36;;;;;;;18.85;12.95;;;;;;;8.33;100.00;100382.59;5112414;27;20721;-72
2024/03/18 08:10:03;;;;;;;21.35;14.05;;;;;;;8.38;100.00;100378.84;5115897;27;20470;-72
2024/03/18 08:12:31;;;;;;;21.90;14.65;;;;;;;8.49;100.00;100382.88;5101633;27;20121;-71
2024/03/18 08:14:57;;;;;;;22.90;15.00;;;;;;;8.57;100.00;100381.63;5120765;27;20079;-72
2024/03/18 08:17:24;;;;;;;22.20;14.38;;;;;;;8.57;100.00;100364.94;5109145;27;20074;-71
2024/03/18 08:19:51;;;;;;;18.98;13.65;;;;;;;8.61;100.00;100375.31;5108939;27;20226;-71
2024/03/18 08:22:18;;;;;;;20.15;13.65;;;;;;;8.65;100.00;100381.34;5108134;27;20182;-71
2024/03/18 08:24:47;;;;;;;21.17;13.70;;;;;;;8.66;100.00;100378.63;5111600;27;20031;-72
2024/03/18 08:27:14;;;;;;;19.38;13.73;;;;;;;8.71;100.00;100386.38;5108320;27;20123;-71
2024/03/18 08:29:43;;;;;;;20.77;13.65;;;;;;;8.70;100.00;100374.94;5088207;27;20059;-72
2024/03/18 08:32:10;;;;;;;22.40;13.65;;;;;;;8.82;100.00;100384.16;5118076;27;20161;-72
2024/03/18 08:34:37;;;;;;;27.33;18.23;;;;;;;8.89;100.00;100376.84;5107818;27;20161;-73
2024/03/18 08:37:04;;;;;;;21.83;13.60;;;;;;;8.92;100.00;100377.59;5126693;27;20082;-72
2024/03/18 08:39:31;;;;;;;19.30;13.48;;;;;;;8.96;100.00;100373.94;5110679;27;20062;-72
2024/03/18 08:42:01;;;;;;;22.98;15.23;;;;;;;9.03;100.00;100375.38;5129200;27;20086;-71
2024/03/18 08:44:28;;;;;;;17.92;13.38;;;;;;;9.12;100.00;100371.50;5108652;27;20069;-72
2024/03/18 08:46:55;;;;;;;21.55;13.70;;;;;;;9.11;100.00;100364.50;5107417;27;20572;-71
2024/03/18 08:49:23;;;;;;;19.10;12.65;;;;;;;9.27;100.00;100378.81;5111323;27;20070;-73
2024/03/18 08:51:50;;;;;;;21.33;13.73;;;;;;;9.27;100.00;100378.81;5095764;27;20059;-72
2024/03/18 08:54:18;;;;;;;21.80;13.73;;;;;;;9.25;100.00;100378.00;5126659;27;20055;-73
2024/03/18 08:56:44;;;;;;;21.63;13.52;;;;;;;9.16;100.00;100378.38;5105516;27;20722;-71
2024/03/18 08:59:13;;;;;;;22.38;13.05;;;;;;;9.15;100.00;100384.56;5126434;27;20077;-72
2024/03/18 09:01:39;;;;;;;16.10;12.35;;;;;;;8.98;100.00;100345.66;5122480;27;20142;-73
2024/03/18 09:04:06;;;;;;;20.50;13.48;;;;;;;9.27;100.00;100381.44;5126382;27;20074;-73
2024/03/18 09:06:34;;;;;;;20.80;13.95;;;;;;;9.34;100.00;100366.16;5109731;27;20080;-72
2024/03/18 09:09:01;;;;;;;19.00;13.32;;;;;;;9.19;100.00;100333.34;5117996;27;20039;-74
2024/03/18 09:11:28;;;;;;;26.70;16.90;;;;;;;9.36;100.00;100349.34;5131167;27;20066;-75
2024/03/18 09:13:55;;;;;;;20.02;14.90;;;;;;;9.59;100.00;100388.00;5110501;27;20035;-72
2024/03/18 09:16:23;;;;;;;21.98;14.20;;;;;;;9.15;100.00;100302.69;5090892;27;20094;-73
2024/03/18 09:18:50;;;;;;;21.63;13.60;;;;;;;9.63;100.00;100380.78;5088025;27;20041;-73
2024/03/18 09:21:17;;;;;;;21.63;13.18;;;;;;;9.64;100.00;100374.56;5090640;28;20174;-72
2024/03/18 09:23:44;;;;;;;20.13;13.98;;;;;;;9.63;100.00;100370.22;5080042;27;20039;-72
2024/03/18 09:26:11;;;;;;;21.20;14.27;;;;;;;9.73;100.00;100387.41;5074764;28;20268;-71
2024/03/18 09:28:40;;;;;;;25.25;14.32;;;;;;;9.69;100.00;100373.47;5086447;28;20497;-72
2024/03/18 09:31:07;;;;;;;19.48;13.63;;;;;;;9.77;100.00;100384.53;5072808;28;20074;-71
2024/03/18 09:33:36;;;;;;;20.80;14.15;;;;;;;9.79;100.00;100384.47;5072470;28;20067;-71
2024/03/18 09:36:04;;;;;;;21.08;13.48;;;;;;;9.82;100.00;100390.50;5072477;28;20040;-73
2024/03/18 09:38:31;;;;;;;21.73;14.35;;;;;;;9.89;100.00;100387.59;5069849;28;20126;-73
2024/03/18 09:41:04;;;;;;;18.45;13.07;;;;;;;9.90;100.00;100392.81;5099319;27;20098;-71
2024/03/18 09:43:33;;;;;;;23.08;14.48;;;;;;;9.86;100.00;100375.38;5092490;28;20472;-73
2024/03/18 09:46:00;;;;;;;19.27;13.45;;;;;;;9.92;100.00;100388.28;5075570;27;20050;-73
2024/03/18 09:48:29;;;;;;;20.67;14.23;;;;;;;9.91;100.00;100391.03;5091764;28;20122;-72
2024/03/18 09:50:58;;;;;;;23.45;14.02;;;;;;;9.82;100.00;100379.06;5090876;28;20093;-73
2024/03/18 09:53:25;;;;;;;26.23;15.30;;;;;;;9.64;100.00;100338.41;5064849;28;20074;-72
2024/03/18 09:55:51;;;;;;;21.48;13.52;;;;;;;10.09;100.00;100387.53;5073338;28;20036;-72
2024/03/18 09:58:18;;;;;;;25.65;15.10;;;;;;;10.36;100.00;100385.47;5068796;28;20040;-71
2024/03/18 10:00:45;;;;;;;19.98;14.73;;;;;;;10.51;100.00;100390.94;5091077;28;20044;-70
2024/03/18 10:03:17;;;;;;;21.13;15.00;;;;;;;10.48;100.00;100377.81;5073952;28;20142;-70
2024/03/18 10:05:45;;;;;;;23.80;14.13;;;;;;;10.65;100.00;100390.28;5074579;27;20086;-72
2024/03/18 10:08:16;;;;;;;20.63;13.65;;;;;;;10.79;100.00;100397.56;5083679;27;20047;-72
2024/03/18 10:10:45;;;;;;;;;;;;;;;10.92;100.00;100403.13;5060118;27;20067;-71
2024/03/18 10:13:12;;;;;;;21.30;13.25;;;;;;;11.00;100.00;100393.03;5057372;28;20469;-73
2024/03/18 10:15:40;;;;;;;22.25;14.48;;;;;;;11.04;100.00;100394.56;5115591;27;20062;-71
2024/03/18 10:18:13;;;;;;;19.83;14.18;;;;;;;11.08;100.00;100394.34;5104062;27;20077;-70
2024/03/18 10:20:40;;;;;;;23.75;15.50;;;;;;;11.02;100.00;100368.16;5120735;27;20483;-71
2024/03/18 10:23:12;;;;;;;19.75;13.73;;;;;;;11.21;100.00;100390.16;5113938;27;20131;-71
2024/03/18 10:25:41;;;;;;;24.35;14.00;;;;;;;11.21;100.00;100386.66;5126461;27;20150;-72
2024/03/18 10:28:10;;;;;;;21.10;14.18;;;;;;;11.24;100.00;100384.72;5108443;27;20118;-75
2024/03/18 10:30:38;;;;;;;22.15;13.73;;;;;;;11.22;100.00;100381.28;5108291;27;20528;-73
2024/03/18 10:33:06;;;;;;;22.38;14.07;;;;;;;11.13;100.00;100380.88;5094262;27;20180;-72
2024/03/18 10:35:34;;;;;;;21.73;13.07;;;;;;;11.11;100.00;100383.59;5112915;27;20129;-72
2024/03/18 10:38:03;;;;;;;24.38;14.10;;;;;;;11.10;100.00;100381.03;5111244;27;20141;-72
2024/03/18 10:40:34;;;;;;;24.23;16.85;;;;;;;11.20;100.00;100391.09;5125724;27;20078;-72
2024/03/18 10:43:05;;;;;;;17.42;13.18;;;;;;;11.21;100.00;100386.66;5124732;27;20129;-72
2024/03/18 10:45:35;;;;;;;38.03;24.27;;;;;;;11.24;100.00;100395.31;5127833;27;20035;-73
2024/03/18 10:48:04;;;;;;;22.40;14.80;;;;;;;11.30;100.00;100394.16;5128316;27;20889;-72
2024/03/18 10:50:31;;;;;;;22.13;13.90;;;;;;;11.30;100.00;100394.16;5097712;27;20070;-72
2024/03/18 10:52:58;;;;;;;23.35;15.15;;;;;;;11.34;100.00;100385.09;5110344;27;20032;-73
2024/03/18 10:55:26;;;;;;;20.52;14.68;;;;;;;11.22;100.00;100364.50;5127928;27;20047;-76
2024/03/18 10:57:57;;;;;;;20.42;14.07;;;;;;;11.30;100.00;100383.56;5136666;27;20050;-73
2024/03/18 11:00:26;;;;;;;20.63;13.82;;;;;;;11.33;100.00;100386.06;5111540;27;20089;-72
2024/03/18 11:02:58;;;;;;;21.85;14.20;;;;;;;11.22;100.00;100381.28;5108863;27;20119;-72
2024/03/18 11:05:27;;;;;;;20.70;13.50;;;;;;;11.29;100.00;100397.75;5112450;27;20039;-73
2024/03/18 11:07:56;;;;;;;20.42;14.25;;;;;;;11.34;100.00;100395.69;5106766;27;20563;-74
2024/03/18 11:10:24;;;;;;;20.67;14.55;;;;;;;11.40;100.00;100399.84;5129821;27;20062;-74
2024/03/18 11:12:52;;;;;;;23.40;15.10;;;;;;;11.41;100.00;100402.44;5111101;27;20100;-72
2024/03/18 11:15:19;;;;;;;22.33;15.45;;;;;;;11.49;100.00;100396.75;5109726;27;20552;-72